Ames, KS

10:49 AM CDT on May 25, 2015 (GMT -0500)
Joe's Place | | Change Station
CLOSE
Current Station
Personal Weather Station
Location: Concordia, KS
Elevation: 1440 ft
Nearby Weather Stations

Elev 1440 ft 39.57 °N, 97.65 °W | Updated 11 seconds ago

Overcast
Overcast
65.2 °F
Feels Like 65.2 °F
N
5.0
Wind Variable Wind from SSW
Gusts 8.0 mph

Today
High -- | Low -- °F
--% Chance of Precip.
Yesterday
High -- | Low -- °F
Precip. -- in
6:08 AM 8:46 PM
Waxing Crescent, 49% visible
Pressure 29.80 in
Visibility 10.0 miles
Clouds Overcast 4400 ft
Dew Point 60 °F
Humidity 83%
Rainfall 0.20 in
Snow Depth Not available.
UV 2 out of 12
Pollen 7.60 out of 12
Air Quality Not available.
Flu Activity No Activity
METAR KCNK 251455Z AUTO 18009KT 10SM OVC044 17/14 A2982 RMK AO2 SLP090 T01720144 50014 $

More Conditions Fewer Conditions

Pressure 29.80 in
Visibility 10.0 miles
Clouds Overcast 4400 ft
Dew Point 60 °F
Humidity 83%
Rainfall 0.20 in
Snow Depth Not available.
UV 2 out of 12
Pollen 7.60 out of 12
Air Quality Not available.
Flu Activity No Activity
METAR KCNK 251455Z AUTO 18009KT 10SM OVC044 17/14 A2982 RMK AO2 SLP090 T01720144 50014 $

More Conditions Fewer Conditions

10-Day Weather Forecast

Almanac

Astronomy

May. 25, 2015 Rise Set
Actual Time
Civil Twilight
Nautical Twilight
Astronomical Twilight
Moon
Length of Visible Light
Length of Day
Tomorrow will be .
, % of the Moon is Illuminated

Today's Extremes

State Highs State Lows

Community

WunderPhotos

Upload Photos

1,824,028 photos uploaded!

WunderBlogs® & News

Nearby

Air Quality

  Air Quality AQ Index Pollutant
Not available.

Snow Depth

Station Depth Elevation

Earthquake Activity

City Distance Mag. Time & Date
Minimum magnitude displayed is 2.5.

Coastal Water Temperatures

Place Temperature

Stations

Nearby Weather Stations

Station Location Temp. Windchill Dew Point Humidity Wind Precip. Elev Updated Type